createdAt,value
2022-11-30T00:01:57.055Z,52.43
2022-11-30T00:04:25.185Z,43.33
2022-11-30T00:06:57.184Z,45.50
2022-11-30T00:09:25.330Z,50.00
2022-11-30T00:11:54.738Z,48.50
2022-11-30T00:14:22.747Z,52.33
2022-11-30T00:16:50.816Z,48.97
2022-11-30T00:19:18.910Z,54.27
2022-11-30T00:21:47.316Z,49.07
2022-11-30T00:24:15.269Z,46.57
2022-11-30T00:26:43.247Z,46.97
2022-11-30T00:29:13.036Z,52.73
2022-11-30T00:31:41.053Z,50.67
2022-11-30T00:34:09.050Z,51.63
2022-11-30T00:36:37.037Z,49.33
2022-11-30T00:39:05.310Z,46.70
2022-11-30T00:41:33.378Z,50.50
2022-11-30T00:44:01.422Z,46.10
2022-11-30T00:46:30.760Z,50.47
2022-11-30T00:48:58.828Z,50.87
2022-11-30T00:51:26.798Z,45.50
2022-11-30T00:53:54.858Z,50.60
2022-11-30T00:56:24.815Z,53.30
2022-11-30T00:58:53.012Z,50.93
2022-11-30T01:01:21.128Z,48.47
2022-11-30T01:03:50.582Z,53.70
2022-11-30T01:06:18.600Z,50.23
2022-11-30T01:08:48.087Z,50.00
2022-11-30T01:11:19.362Z,46.63
2022-11-30T01:13:47.367Z,47.60
2022-11-30T01:16:19.370Z,46.17
2022-11-30T01:18:48.086Z,48.40
2022-11-30T01:21:19.210Z,51.77
2022-11-30T01:23:47.687Z,49.60
2022-11-30T01:26:16.587Z,52.00
2022-11-30T01:28:45.038Z,54.77
2022-11-30T01:31:14.979Z,49.83
2022-11-30T01:33:43.417Z,49.03
2022-11-30T01:36:13.552Z,46.83
2022-11-30T01:38:44.517Z,51.40
2022-11-30T01:41:14.643Z,56.20
2022-11-30T01:43:44.773Z,47.63
2022-11-30T01:46:23.185Z,50.10
2022-11-30T01:48:58.043Z,49.33
2022-11-30T01:51:28.017Z,49.43
2022-11-30T01:53:57.429Z,50.43
2022-11-30T01:56:25.440Z,54.27
2022-11-30T01:58:53.592Z,51.40
2022-11-30T02:01:21.614Z,49.87
2022-11-30T02:03:55.951Z,55.47
2022-11-30T02:06:25.769Z,48.77
2022-11-30T02:08:55.154Z,55.60
2022-11-30T02:11:28.008Z,53.80
2022-11-30T02:14:19.382Z,50.53
2022-11-30T02:16:56.704Z,53.30
2022-11-30T02:19:59.222Z,51.67
2022-11-30T02:22:43.675Z,56.67
2022-11-30T02:25:24.164Z,57.47
2022-11-30T02:28:17.401Z,57.20
2022-11-30T02:30:50.905Z,64.93
2022-11-30T02:33:23.341Z,56.90
2022-11-30T02:35:55.335Z,53.50
2022-11-30T02:38:25.572Z,47.10
2022-11-30T02:40:53.808Z,50.03
2022-11-30T02:43:24.505Z,56.13
2022-11-30T02:45:59.843Z,55.27
2022-11-30T02:48:33.536Z,52.13
2022-11-30T02:51:04.881Z,49.07
2022-11-30T02:53:32.963Z,52.90
2022-11-30T02:56:01.038Z,50.73
2022-11-30T02:58:29.027Z,52.43
2022-11-30T03:00:58.376Z,53.10
2022-11-30T03:03:26.453Z,53.93
2022-11-30T03:05:54.510Z,60.80
2022-11-30T03:08:22.548Z,55.17
2022-11-30T03:10:50.600Z,62.70
2022-11-30T03:13:18.594Z,53.90
2022-11-30T03:15:46.602Z,62.47
2022-11-30T03:18:15.948Z,55.17
2022-11-30T03:20:44.307Z,56.37
2022-11-30T03:23:12.289Z,54.60
2022-11-30T03:25:40.338Z,58.93
2022-11-30T03:28:08.318Z,50.83
2022-11-30T03:30:36.284Z,55.47
2022-11-30T03:33:04.292Z,56.73
2022-11-30T03:35:33.626Z,56.40
2022-11-30T03:38:01.583Z,52.40
2022-11-30T03:40:29.548Z,58.17
2022-11-30T03:42:57.558Z,54.13
2022-11-30T03:45:25.517Z,59.80
2022-11-30T03:47:53.470Z,57.17
2022-11-30T03:50:21.588Z,59.53
2022-11-30T03:52:51.203Z,59.60
2022-11-30T03:55:19.569Z,59.23
2022-11-30T03:57:47.691Z,54.10
2022-11-30T04:00:16.849Z,56.07
2022-11-30T04:02:45.252Z,60.20
2022-11-30T04:05:13.507Z,55.93
2022-11-30T04:07:41.577Z,62.17
2022-11-30T04:10:12.424Z,57.20
2022-11-30T04:12:40.406Z,61.80
2022-11-30T04:15:09.698Z,56.97
2022-11-30T04:17:37.726Z,57.50
2022-11-30T04:20:07.007Z,53.83
2022-11-30T04:22:34.993Z,60.17
2022-11-30T04:25:02.935Z,55.23
2022-11-30T04:27:32.284Z,58.30
2022-11-30T04:30:00.300Z,57.57
2022-11-30T04:32:28.298Z,55.70
2022-11-30T04:34:56.266Z,56.87
2022-11-30T04:37:24.279Z,54.43
2022-11-30T04:39:52.220Z,60.63
2022-11-30T04:42:20.228Z,54.00
2022-11-30T04:44:49.613Z,60.97
2022-11-30T04:47:17.648Z,60.60
2022-11-30T04:49:45.637Z,57.50
2022-11-30T04:52:13.770Z,54.43
2022-11-30T04:54:41.749Z,53.57
2022-11-30T04:57:09.699Z,64.40
2022-11-30T04:59:37.654Z,53.73
2022-11-30T05:02:07.304Z,56.10
2022-11-30T05:04:35.434Z,62.70
2022-11-30T05:07:03.432Z,58.57
2022-11-30T05:09:31.822Z,55.50
2022-11-30T05:11:59.863Z,53.43
2022-11-30T05:14:27.860Z,62.10
2022-11-30T05:16:55.803Z,60.73
2022-11-30T05:19:25.111Z,56.97
2022-11-30T05:21:53.093Z,58.53
2022-11-30T05:24:21.023Z,57.20
2022-11-30T05:26:49.145Z,59.53
2022-11-30T05:29:17.128Z,58.67
2022-11-30T05:31:45.181Z,62.87
2022-11-30T05:34:13.209Z,55.37
2022-11-30T05:36:42.575Z,59.10
2022-11-30T05:39:10.867Z,60.20
2022-11-30T05:41:38.928Z,57.33
2022-11-30T05:44:07.396Z,61.27
2022-11-30T05:46:39.664Z,52.23
2022-11-30T05:49:09.178Z,57.73
2022-11-30T05:51:37.165Z,62.57
2022-11-30T05:54:06.647Z,57.67
2022-11-30T05:56:34.712Z,63.17
2022-11-30T05:59:02.698Z,61.93
2022-11-30T06:01:31.026Z,60.57
2022-11-30T06:03:59.138Z,56.70
2022-11-30T06:06:27.111Z,60.90
2022-11-30T06:08:55.629Z,58.70
2022-11-30T06:11:25.364Z,62.20
2022-11-30T06:13:53.332Z,56.00
2022-11-30T06:16:21.396Z,55.60
2022-11-30T06:18:49.458Z,62.50
2022-11-30T06:21:23.933Z,59.27
2022-11-30T06:23:52.640Z,65.60
2022-11-30T06:26:21.177Z,57.43
2022-11-30T06:28:50.595Z,63.67
2022-11-30T06:31:18.710Z,65.33
2022-11-30T06:33:46.840Z,57.33
2022-11-30T06:36:14.919Z,59.67
2022-11-30T06:38:42.974Z,61.50
2022-11-30T06:41:12.476Z,63.93
2022-11-30T06:43:41.430Z,63.50
2022-11-30T06:46:11.365Z,53.27
2022-11-30T06:48:39.785Z,59.70
2022-11-30T06:51:08.928Z,60.60
2022-11-30T06:53:37.601Z,56.90
2022-11-30T06:56:10.482Z,60.80
2022-11-30T06:58:39.073Z,58.90
2022-11-30T07:01:08.187Z,59.00
2022-11-30T07:03:37.854Z,56.73
2022-11-30T07:06:08.676Z,55.47
2022-11-30T07:08:36.970Z,56.77
2022-11-30T07:11:05.570Z,53.87
2022-11-30T07:13:33.905Z,53.50
2022-11-30T07:16:05.291Z,58.17
2022-11-30T07:18:33.487Z,55.27
2022-11-30T07:21:03.756Z,57.50
2022-11-30T07:23:55.987Z,64.97
2022-11-30T07:26:25.781Z,59.03
2022-11-30T07:28:58.177Z,57.77
2022-11-30T07:31:28.230Z,66.43
2022-11-30T07:33:57.679Z,55.77
2022-11-30T07:36:29.638Z,62.20
2022-11-30T07:38:57.695Z,57.60
2022-11-30T07:41:25.869Z,54.63
2022-11-30T07:43:53.938Z,63.67
2022-11-30T07:46:22.198Z,61.27
2022-11-30T07:48:50.451Z,61.00
2022-11-30T07:51:20.647Z,60.03
2022-11-30T07:53:50.459Z,65.80
2022-11-30T07:56:20.284Z,63.93
2022-11-30T07:58:49.473Z,67.43
2022-11-30T08:01:19.279Z,66.00
2022-11-30T08:03:47.520Z,68.27
2022-11-30T08:06:17.172Z,66.07
2022-11-30T08:08:46.187Z,66.13
2022-11-30T08:11:17.648Z,71.30
2022-11-30T08:13:46.093Z,69.20
2022-11-30T08:16:16.253Z,72.00
2022-11-30T08:18:44.979Z,68.13
2022-11-30T08:21:15.907Z,60.70
2022-11-30T08:23:45.729Z,63.00
2022-11-30T08:26:17.021Z,59.27
2022-11-30T08:28:46.402Z,62.83
2022-11-30T08:31:16.332Z,61.00
2022-11-30T08:33:44.707Z,62.47
2022-11-30T08:36:15.214Z,63.07
2022-11-30T08:38:44.744Z,63.27
2022-11-30T08:41:15.511Z,73.93
2022-11-30T08:43:44.896Z,64.27
2022-11-30T08:46:50.719Z,64.47
2022-11-30T08:49:20.472Z,67.57
2022-11-30T08:54:39.079Z,72.30
2022-11-30T08:57:07.108Z,69.07
2022-11-30T08:59:36.595Z,69.77
2022-11-30T09:02:05.859Z,68.17
2022-11-30T09:04:34.086Z,60.53
2022-11-30T09:07:02.313Z,61.23
2022-11-30T09:09:30.401Z,74.30
2022-11-30T09:11:58.549Z,71.77
2022-11-30T09:14:26.576Z,71.80
2022-11-30T09:16:56.530Z,62.63
2022-11-30T09:19:24.581Z,67.03
2022-11-30T09:21:53.102Z,66.20
2022-11-30T09:24:21.455Z,68.77
2022-11-30T09:26:49.717Z,71.33
2022-11-30T09:29:17.822Z,66.93
2022-11-30T09:31:45.892Z,67.30
2022-11-30T09:34:15.485Z,72.73
2022-11-30T09:36:43.976Z,73.07
2022-11-30T09:39:12.922Z,76.57
2022-11-30T09:42:15.786Z,67.60
2022-11-30T09:44:51.743Z,70.67
2022-11-30T09:47:36.644Z,74.80
2022-11-30T09:50:13.569Z,71.07
2022-11-30T09:52:46.041Z,77.20
2022-11-30T09:55:18.806Z,77.53
2022-11-30T09:57:48.518Z,78.30
2022-11-30T10:00:19.308Z,90.13
2022-11-30T10:02:47.888Z,81.80
2022-11-30T10:05:21.046Z,73.07
2022-11-30T10:08:21.404Z,85.40
2022-11-30T10:10:58.821Z,76.07
2022-11-30T10:13:41.992Z,77.13
2022-11-30T10:16:22.871Z,79.53
2022-11-30T10:19:00.312Z,78.67
2022-11-30T10:21:45.799Z,74.03
2022-11-30T10:24:36.599Z,79.40
2022-11-30T10:27:14.150Z,73.40
2022-11-30T10:29:44.415Z,82.90
2022-11-30T10:32:19.744Z,85.57
2022-11-30T10:34:50.407Z,82.57
2022-11-30T10:37:23.285Z,78.27
2022-11-30T10:40:01.511Z,83.40
2022-11-30T10:42:35.983Z,84.77
2022-11-30T10:45:09.626Z,84.07
2022-11-30T10:47:44.493Z,83.60
2022-11-30T10:50:17.959Z,91.33
2022-11-30T10:52:51.852Z,87.07
2022-11-30T10:55:23.719Z,91.70
2022-11-30T10:57:57.220Z,88.57
2022-11-30T11:00:25.548Z,88.10
2022-11-30T11:02:53.763Z,92.13
2022-11-30T11:05:24.094Z,92.30
2022-11-30T11:08:07.199Z,86.83
2022-11-30T11:10:37.604Z,89.27
2022-11-30T11:13:06.743Z,93.63
2022-11-30T11:15:35.930Z,93.47
2022-11-30T11:18:28.972Z,99.37
2022-11-30T11:21:06.721Z,91.00
2022-11-30T11:23:38.833Z,85.60
2022-11-30T11:26:07.651Z,100.23
2022-11-30T11:28:37.052Z,94.43
2022-11-30T11:31:18.229Z,79.13
2022-11-30T11:33:53.354Z,92.37
2022-11-30T11:36:28.328Z,93.23
2022-11-30T11:38:58.611Z,84.83
2022-11-30T11:41:30.032Z,97.10
2022-11-30T11:44:02.556Z,96.10
2022-11-30T11:46:32.434Z,100.13
2022-11-30T11:49:03.877Z,86.70
2022-11-30T11:51:34.391Z,96.23
2022-11-30T11:54:13.874Z,95.67
2022-11-30T11:56:42.408Z,90.37
2022-11-30T11:59:18.759Z,98.30
2022-11-30T12:01:56.511Z,94.43
2022-11-30T12:04:42.810Z,101.57
2022-11-30T12:07:19.358Z,94.93
2022-11-30T12:10:03.014Z,90.53
2022-11-30T12:12:31.187Z,97.23
2022-11-30T12:14:59.500Z,92.37
2022-11-30T12:17:50.651Z,98.13
2022-11-30T12:20:24.907Z,99.03
2022-11-30T12:23:24.193Z,88.10
2022-11-30T12:26:06.547Z,107.23
2022-11-30T12:28:43.171Z,101.33
2022-11-30T12:31:15.330Z,91.23
2022-11-30T12:34:06.038Z,95.87
2022-11-30T12:36:47.107Z,90.07
2022-11-30T12:39:26.449Z,87.57
2022-11-30T12:42:01.174Z,92.20
2022-11-30T12:44:51.428Z,90.00
2022-11-30T12:47:31.421Z,85.63
2022-11-30T12:50:19.986Z,93.57
2022-11-30T12:52:55.723Z,93.30
2022-11-30T12:55:34.259Z,96.90
2022-11-30T12:58:12.492Z,88.87
2022-11-30T13:00:53.163Z,95.37
2022-11-30T13:03:51.783Z,91.53
2022-11-30T13:06:24.417Z,99.13
2022-11-30T13:09:02.458Z,98.80
2022-11-30T13:11:36.081Z,99.87
2022-11-30T13:14:11.042Z,86.27
2022-11-30T13:16:40.513Z,91.60
2022-11-30T13:19:28.345Z,94.37
2022-11-30T13:22:03.807Z,96.73
2022-11-30T13:24:38.864Z,83.83
2022-11-30T13:27:14.999Z,93.80
2022-11-30T13:30:21.192Z,80.40
2022-11-30T13:32:57.851Z,84.77
2022-11-30T13:35:42.623Z,87.00
2022-11-30T13:38:37.009Z,81.37
2022-11-30T13:41:08.333Z,81.87
2022-11-30T13:43:40.673Z,83.57
2022-11-30T13:46:21.917Z,87.03
2022-11-30T13:48:50.352Z,89.10
2022-11-30T13:51:35.285Z,94.53
2022-11-30T13:54:36.417Z,92.13
2022-11-30T13:57:04.965Z,83.77
2022-11-30T13:59:40.764Z,90.47
2022-11-30T14:03:00.486Z,82.30
2022-11-30T14:05:39.673Z,86.10
2022-11-30T14:08:40.607Z,71.27
2022-11-30T14:11:37.813Z,80.00
2022-11-30T14:14:47.041Z,80.47
2022-11-30T14:17:25.257Z,79.30
2022-11-30T14:19:56.360Z,85.60
2022-11-30T14:22:27.498Z,87.40
2022-11-30T14:24:56.811Z,85.73
2022-11-30T14:27:27.207Z,79.77
2022-11-30T14:30:00.336Z,78.70
2022-11-30T14:32:36.395Z,90.57
2022-11-30T14:35:10.739Z,85.97
2022-11-30T14:37:44.996Z,86.50
2022-11-30T14:40:19.385Z,81.17
2022-11-30T14:42:50.407Z,84.23
2022-11-30T14:45:23.702Z,90.70
2022-11-30T14:47:54.171Z,90.23
2022-11-30T14:50:27.571Z,92.17
2022-11-30T14:53:11.805Z,95.53
2022-11-30T14:55:45.115Z,91.60
2022-11-30T14:58:22.463Z,92.37
2022-11-30T15:00:51.864Z,83.60
2022-11-30T15:03:24.869Z,95.17
2022-11-30T15:05:54.770Z,85.90
2022-11-30T15:08:24.963Z,95.10
2022-11-30T15:10:53.175Z,91.43
2022-11-30T15:13:21.690Z,89.30
2022-11-30T15:15:54.615Z,95.60
2022-11-30T15:18:24.071Z,84.80
2022-11-30T15:20:56.928Z,96.73
2022-11-30T15:23:26.540Z,88.30
2022-11-30T15:25:57.929Z,99.83
2022-11-30T15:28:30.801Z,93.37
2022-11-30T15:31:02.344Z,80.23
2022-11-30T15:33:35.319Z,89.53
2022-11-30T15:36:23.030Z,99.10
2022-11-30T15:38:54.143Z,91.37
2022-11-30T15:41:24.513Z,97.90
2022-11-30T15:43:54.570Z,91.30
2022-11-30T15:46:31.750Z,87.27
2022-11-30T15:49:17.077Z,90.30
2022-11-30T15:51:47.330Z,96.00
2022-11-30T15:54:16.782Z,94.43
2022-11-30T15:56:56.664Z,92.63
2022-11-30T15:59:27.384Z,95.27
2022-11-30T16:02:04.892Z,99.03
2022-11-30T16:05:13.828Z,98.73
2022-11-30T16:07:50.820Z,102.93
2022-11-30T16:10:22.966Z,94.90
2022-11-30T16:12:52.541Z,96.03
2022-11-30T16:15:23.604Z,88.40
2022-11-30T16:17:52.366Z,97.53
2022-11-30T16:20:20.920Z,102.53
2022-11-30T16:22:49.576Z,100.80
2022-11-30T16:25:21.920Z,94.73
2022-11-30T16:27:50.521Z,84.70
2022-11-30T16:30:20.534Z,91.93
2022-11-30T16:32:49.150Z,91.97
2022-11-30T16:35:21.797Z,85.80
2022-11-30T16:37:49.910Z,95.73
2022-11-30T16:40:18.471Z,100.67
2022-11-30T16:42:50.006Z,83.93
2022-11-30T16:45:20.683Z,87.37
2022-11-30T16:47:48.910Z,95.17
2022-11-30T16:50:17.086Z,92.20
2022-11-30T16:52:45.406Z,96.77
2022-11-30T16:55:15.271Z,92.83
2022-11-30T16:57:43.431Z,83.57
2022-11-30T17:00:16.660Z,92.50
2022-11-30T17:02:50.173Z,96.90
2022-11-30T17:05:18.808Z,93.30
2022-11-30T17:07:46.936Z,92.07
2022-11-30T17:10:15.078Z,84.27
2022-11-30T17:12:43.138Z,84.73
2022-11-30T17:15:17.004Z,84.60
2022-11-30T17:17:45.216Z,85.50
2022-11-30T17:20:15.003Z,87.17
2022-11-30T17:22:43.985Z,88.30
2022-11-30T17:25:19.472Z,92.40
2022-11-30T17:27:48.197Z,77.47
2022-11-30T17:30:19.520Z,85.07
2022-11-30T17:32:47.781Z,77.30
2022-11-30T17:35:16.005Z,82.80
2022-11-30T17:37:44.095Z,84.20
2022-11-30T17:40:16.110Z,73.53
2022-11-30T17:42:44.719Z,72.27
2022-11-30T17:45:12.829Z,74.00
2022-11-30T17:47:42.288Z,78.73
2022-11-30T17:50:10.953Z,77.97
2022-11-30T17:52:38.939Z,76.90
2022-11-30T17:55:07.845Z,78.20
2022-11-30T17:57:38.332Z,78.33
2022-11-30T18:00:09.618Z,76.43
2022-11-30T18:02:37.721Z,89.87
2022-11-30T18:05:08.509Z,71.27
2022-11-30T18:07:36.596Z,79.77
2022-11-30T18:10:04.900Z,70.60
2022-11-30T18:12:32.925Z,71.60
2022-11-30T18:15:01.010Z,67.73
2022-11-30T18:17:29.013Z,76.90
2022-11-30T18:19:57.038Z,74.20
2022-11-30T18:22:26.506Z,63.00
2022-11-30T18:24:54.543Z,69.93
2022-11-30T18:27:22.592Z,75.87
2022-11-30T18:29:50.615Z,70.80
2022-11-30T18:32:18.688Z,65.23
2022-11-30T18:34:49.287Z,70.97
2022-11-30T18:37:17.782Z,70.83
2022-11-30T18:39:47.172Z,69.33
2022-11-30T18:42:15.207Z,65.00
2022-11-30T18:44:43.227Z,68.50
2022-11-30T18:47:11.328Z,75.93
2022-11-30T18:49:39.410Z,70.87
2022-11-30T18:52:07.463Z,65.03
2022-11-30T18:54:36.269Z,75.87
2022-11-30T18:57:05.702Z,68.57
2022-11-30T18:59:33.730Z,70.93
2022-11-30T19:02:01.906Z,67.60
2022-11-30T19:04:30.058Z,72.57
2022-11-30T19:06:58.094Z,75.60
2022-11-30T19:09:26.151Z,75.90
2022-11-30T19:11:54.211Z,84.43
2022-11-30T19:14:23.620Z,83.80
2022-11-30T19:16:51.781Z,78.43
2022-11-30T19:19:19.825Z,82.57
2022-11-30T19:21:48.073Z,85.37
2022-11-30T19:24:16.554Z,72.73
2022-11-30T19:26:44.657Z,72.77
2022-11-30T19:29:13.219Z,74.17
2022-11-30T19:31:42.665Z,77.43
2022-11-30T19:34:13.066Z,74.90
2022-11-30T19:36:42.046Z,78.93
2022-11-30T19:39:11.370Z,78.90
2022-11-30T19:41:39.599Z,72.40
2022-11-30T19:44:07.639Z,85.97
2022-11-30T19:46:35.823Z,75.20
2022-11-30T19:49:05.364Z,69.03
2022-11-30T19:51:33.519Z,70.57
2022-11-30T19:54:01.833Z,68.03
2022-11-30T19:56:31.691Z,82.73
2022-11-30T19:59:05.324Z,70.00
2022-11-30T20:01:34.791Z,69.17
2022-11-30T20:04:05.370Z,75.13
2022-11-30T20:06:35.755Z,70.17
2022-11-30T20:09:04.312Z,71.10
2022-11-30T20:11:32.800Z,72.93
2022-11-30T20:14:01.146Z,75.00
2022-11-30T20:16:29.991Z,81.10
2022-11-30T20:19:00.746Z,83.43
2022-11-30T20:21:31.675Z,78.13
2022-11-30T20:24:02.130Z,84.03
2022-11-30T20:26:32.322Z,75.13
2022-11-30T20:29:02.369Z,82.93
2022-11-30T20:31:35.314Z,73.20
2022-11-30T20:34:03.544Z,75.60
2022-11-30T20:36:32.952Z,74.20
2022-11-30T20:39:02.858Z,71.90
2022-11-30T20:41:31.089Z,71.00
2022-11-30T20:43:59.206Z,77.23
2022-11-30T20:46:28.877Z,86.10
2022-11-30T20:48:57.534Z,83.47
2022-11-30T20:51:32.167Z,81.60
2022-11-30T20:54:05.589Z,86.40
2022-11-30T20:56:35.286Z,82.43
2022-11-30T20:59:05.881Z,81.50
2022-11-30T21:01:34.694Z,80.00
2022-11-30T21:04:02.786Z,71.60
2022-11-30T21:06:31.535Z,81.23
2022-11-30T21:09:00.351Z,76.57
2022-11-30T21:11:30.312Z,77.80
2022-11-30T21:13:59.336Z,73.17
2022-11-30T21:16:29.521Z,66.43
2022-11-30T21:18:59.556Z,75.00
2022-11-30T21:21:30.566Z,72.47
2022-11-30T21:24:00.260Z,70.80
2022-11-30T21:26:31.648Z,77.27
2022-11-30T21:29:03.071Z,68.37
2022-11-30T21:31:31.919Z,69.50
2022-11-30T21:34:00.698Z,72.00
2022-11-30T21:36:29.225Z,77.90
2022-11-30T21:39:04.961Z,71.90
2022-11-30T21:41:36.130Z,77.23
2022-11-30T21:44:04.581Z,68.03
2022-11-30T21:46:32.897Z,69.43
2022-11-30T21:49:01.273Z,63.07
2022-11-30T21:51:31.583Z,73.70
2022-11-30T21:54:01.782Z,76.50
2022-11-30T21:56:32.550Z,81.63
2022-11-30T21:59:04.580Z,68.00
2022-11-30T22:01:34.502Z,76.20
2022-11-30T22:04:04.177Z,72.80
2022-11-30T22:06:33.423Z,68.23
2022-11-30T22:09:07.644Z,62.17
2022-11-30T22:11:37.220Z,70.60
2022-11-30T22:14:07.353Z,65.13
2022-11-30T22:16:36.594Z,71.60
2022-11-30T22:19:07.256Z,60.03
2022-11-30T22:21:36.109Z,59.83
2022-11-30T22:24:06.509Z,62.87
2022-11-30T22:26:35.859Z,63.70
2022-11-30T22:29:07.963Z,61.63
2022-11-30T22:31:38.577Z,64.43
2022-11-30T22:34:07.320Z,71.23
2022-11-30T22:36:41.330Z,62.43
2022-11-30T22:39:12.839Z,58.93
2022-11-30T22:41:41.864Z,59.77
2022-11-30T22:44:12.963Z,61.97
2022-11-30T22:46:41.654Z,66.53
2022-11-30T22:49:19.969Z,63.20
2022-11-30T22:51:49.448Z,65.80
2022-11-30T22:54:18.003Z,67.17
2022-11-30T22:56:46.460Z,64.87
2022-11-30T22:59:17.079Z,65.50
2022-11-30T23:01:47.038Z,65.80
2022-11-30T23:04:17.064Z,68.80
2022-11-30T23:06:48.169Z,59.77
2022-11-30T23:09:17.835Z,72.80
2022-11-30T23:11:46.323Z,64.73
2022-11-30T23:14:16.538Z,70.77
2022-11-30T23:16:45.991Z,65.47
2022-11-30T23:19:14.800Z,70.93
2022-11-30T23:21:45.420Z,69.13
2022-11-30T23:24:17.520Z,61.90
2022-11-30T23:26:46.061Z,58.53
2022-11-30T23:29:17.837Z,63.53
2022-11-30T23:31:46.908Z,62.17
2022-11-30T23:34:17.678Z,67.33
2022-11-30T23:36:46.180Z,70.57
2022-11-30T23:39:17.681Z,69.70
2022-11-30T23:41:46.012Z,61.77
2022-11-30T23:44:15.606Z,60.53
2022-11-30T23:46:43.811Z,66.17
2022-11-30T23:49:14.541Z,62.77
2022-11-30T23:51:42.926Z,61.63
2022-11-30T23:54:10.968Z,68.90
2022-11-30T23:56:39.074Z,61.80
2022-11-30T23:59:07.071Z,58.60
